Time;durP1;ratioP1;P1;durP2;ratioP2;P2;SDS_P1;SDS_P2;PMS_P1;PMS_P2;Temp;Humidity;BMP_temperature;BMP_pressure;BME280_temperature;BME280_humidity;BME280_pressure;Samples;Min_cycle;Max_cycle;Signal;HPM_P1;HPM_P2
2021/08/28 00:02:01;;;;;;;304.67;49.97;;;12.30;99.90;;;;;;5011613;28;20106;-76
2021/08/28 00:04:30;;;;;;;378.33;55.50;;;12.30;99.90;;;;;;5046289;28;20044;-76
2021/08/28 00:06:59;;;;;;;417.48;58.67;;;12.30;99.90;;;;;;5022282;28;20078;-76
2021/08/28 00:09:25;;;;;;;356.48;53.45;;;12.30;99.90;;;;;;4992428;28;20050;-77
2021/08/28 00:11:52;;;;;;;347.83;54.25;;;12.40;99.90;;;;;;5007969;28;20038;-77
2021/08/28 00:14:19;;;;;;;299.02;53.00;;;12.40;99.90;;;;;;4991526;28;20041;-77
2021/08/28 00:16:46;;;;;;;334.45;56.80;;;12.40;99.90;;;;;;5008704;28;20095;-77
2021/08/28 00:19:13;;;;;;;346.55;57.08;;;12.30;99.90;;;;;;5009218;28;20127;-78
2021/08/28 00:21:41;;;;;;;273.95;52.40;;;12.40;99.90;;;;;;5024912;28;20115;-77
2021/08/28 00:24:07;;;;;;;307.63;53.72;;;12.40;99.90;;;;;;5026224;28;20060;-77
2021/08/28 00:26:34;;;;;;;174.27;45.40;;;12.50;99.90;;;;;;5020989;28;20045;-76
2021/08/28 00:29:01;;;;;;;245.70;51.90;;;12.40;99.90;;;;;;5014820;28;20046;-77
2021/08/28 00:31:28;;;;;;;193.20;47.22;;;12.30;99.90;;;;;;5011912;28;20042;-76
2021/08/28 00:33:55;;;;;;;296.55;52.97;;;12.30;99.90;;;;;;5009619;28;20053;-76
2021/08/28 00:36:21;;;;;;;424.05;61.78;;;12.40;99.90;;;;;;5028964;28;20038;-76
2021/08/28 00:38:48;;;;;;;251.90;51.15;;;12.40;99.90;;;;;;5029440;28;20056;-76
2021/08/28 00:41:15;;;;;;;269.95;54.72;;;12.40;99.90;;;;;;5011562;28;20029;-76
2021/08/28 00:43:43;;;;;;;298.13;55.92;;;12.40;99.90;;;;;;5018890;28;20042;-77
2021/08/28 00:46:10;;;;;;;254.10;55.17;;;12.40;99.90;;;;;;5061816;28;20065;-76
2021/08/28 00:48:37;;;;;;;178.00;48.97;;;12.40;99.90;;;;;;5018343;28;20049;-78
2021/08/28 00:51:04;;;;;;;163.43;47.28;;;12.40;99.90;;;;;;5039440;28;20050;-77
2021/08/28 00:53:31;;;;;;;185.63;50.50;;;12.40;99.90;;;;;;5005027;28;20053;-77
2021/08/28 00:55:58;;;;;;;180.02;48.30;;;12.60;99.90;;;;;;4996649;28;20099;-78
2021/08/28 00:58:25;;;;;;;180.07;50.08;;;12.60;99.90;;;;;;4989782;28;20038;-78
2021/08/28 01:01:08;;;;;;;163.60;48.58;;;12.60;99.90;;;;;;4991423;28;20046;-77
2021/08/28 01:03:38;;;;;;;157.48;47.83;;;12.60;99.90;;;;;;5001526;28;20620;-77
2021/08/28 01:06:07;;;;;;;141.40;44.40;;;12.70;99.90;;;;;;5004028;28;20042;-77
2021/08/28 01:09:02;;;;;;;152.45;47.38;;;12.70;99.90;;;;;;5005067;28;20128;-76
2021/08/28 01:12:10;;;;;;;142.30;44.58;;;12.70;99.90;;;;;;4999152;28;20138;-76
2021/08/28 01:14:51;;;;;;;132.20;43.10;;;12.70;99.90;;;;;;5011299;28;20085;-77
2021/08/28 01:17:20;;;;;;;108.43;39.15;;;12.70;99.90;;;;;;4983695;28;20043;-77
2021/08/28 01:20:08;;;;;;;118.47;42.88;;;12.80;99.90;;;;;;4995386;28;20100;-77
2021/08/28 01:22:54;;;;;;;104.97;40.38;;;12.80;99.90;;;;;;5004740;28;20050;-77
2021/08/28 01:25:32;;;;;;;91.20;37.40;;;12.70;99.90;;;;;;5012607;28;20557;-76
2021/08/28 01:28:14;;;;;;;98.72;37.92;;;12.60;99.90;;;;;;5028512;28;20054;-76
2021/08/28 01:30:43;;;;;;;97.35;39.10;;;12.40;99.90;;;;;;5057153;28;20045;-77
2021/08/28 01:33:13;;;;;;;128.48;45.00;;;12.40;99.90;;;;;;5012461;28;20099;-76
2021/08/28 01:35:45;;;;;;;114.95;42.05;;;12.30;99.90;;;;;;5009777;28;20045;-76
2021/08/28 01:38:17;;;;;;;140.18;44.90;;;12.30;99.90;;;;;;5042952;28;20513;-77
2021/08/28 01:40:51;;;;;;;142.15;44.70;;;12.40;99.90;;;;;;5010258;28;20037;-77
2021/08/28 01:43:19;;;;;;;153.48;48.00;;;12.30;99.90;;;;;;5014003;28;20156;-77
2021/08/28 01:45:47;;;;;;;126.38;43.55;;;12.20;99.90;;;;;;5060177;28;20045;-77
2021/08/28 01:48:15;;;;;;;150.43;45.25;;;12.30;99.90;;;;;;5009364;28;20049;-77
2021/08/28 01:50:47;;;;;;;142.18;45.05;;;12.30;99.90;;;;;;5008931;28;20045;-77
2021/08/28 01:53:19;;;;;;;117.28;41.25;;;12.30;99.90;;;;;;5041429;28;20646;-76
2021/08/28 01:55:46;;;;;;;107.88;40.85;;;12.40;99.90;;;;;;5058925;28;20123;-76
2021/08/28 01:58:13;;;;;;;111.30;39.22;;;12.40;99.90;;;;;;5009612;28;20065;-76
2021/08/28 02:00:49;;;;;;;114.82;41.53;;;12.50;99.90;;;;;;5009545;28;20259;-76
2021/08/28 02:03:33;;;;;;;153.88;45.88;;;12.50;99.90;;;;;;5023035;28;20136;-77
2021/08/28 02:06:03;;;;;;;126.95;43.05;;;12.60;99.90;;;;;;5009408;28;20053;-77
2021/08/28 02:08:47;;;;;;;148.57;44.70;;;12.50;99.90;;;;;;5010357;28;20189;-76
2021/08/28 02:11:21;;;;;;;114.97;39.70;;;12.60;99.90;;;;;;5058459;28;20145;-77
2021/08/28 02:14:06;;;;;;;105.93;35.50;;;12.60;99.90;;;;;;5026363;28;20115;-77
2021/08/28 02:16:35;;;;;;;92.90;36.22;;;12.60;99.90;;;;;;5018572;28;20041;-77
2021/08/28 02:19:28;;;;;;;112.78;39.08;;;12.70;99.90;;;;;;5011285;28;20049;-77
2021/08/28 02:22:37;;;;;;;85.95;35.60;;;12.60;99.90;;;;;;4967649;28;20099;-76
2021/08/28 02:25:33;;;;;;;101.95;35.83;;;12.70;99.90;;;;;;5048151;28;20123;-77
2021/08/28 02:28:08;;;;;;;106.90;36.72;;;12.70;99.90;;;;;;4999491;28;20125;-77
2021/08/28 02:30:35;;;;;;;99.70;35.08;;;12.70;99.90;;;;;;5003131;28;20058;-77
2021/08/28 02:33:15;;;;;;;86.82;35.00;;;12.60;99.90;;;;;;4991278;28;20050;-76
2021/08/28 02:35:59;;;;;;;93.10;34.38;;;12.60;99.90;;;;;;5004767;28;20048;-77
2021/08/28 02:38:27;;;;;;;89.25;34.00;;;12.70;99.90;;;;;;5008666;28;20046;-77
2021/08/28 02:40:58;;;;;;;94.28;39.45;;;12.70;99.90;;;;;;4972491;28;20045;-77
2021/08/28 02:43:26;;;;;;;106.72;42.75;;;12.80;99.90;;;;;;5005092;28;20050;-76
2021/08/28 02:45:59;;;;;;;121.10;44.42;;;12.70;99.90;;;;;;4999128;28;20065;-76
2021/08/28 02:48:30;;;;;;;116.05;43.22;;;12.70;99.90;;;;;;4989558;28;20498;-76
2021/08/28 02:51:01;;;;;;;99.82;37.63;;;12.70;99.90;;;;;;4987701;28;20133;-77
2021/08/28 02:53:30;;;;;;;97.45;36.20;;;12.80;99.90;;;;;;4987227;28;20096;-77
2021/08/28 02:55:58;;;;;;;90.88;33.97;;;12.80;99.90;;;;;;4997064;28;20135;-77
2021/08/28 02:58:30;;;;;;;99.47;36.78;;;12.80;99.90;;;;;;4992227;28;20050;-77
2021/08/28 03:00:58;;;;;;;96.93;36.15;;;12.80;99.90;;;;;;4972790;28;20683;-76
2021/08/28 03:03:25;;;;;;;108.55;38.17;;;12.90;99.90;;;;;;5005381;28;20060;-78
2021/08/28 03:05:54;;;;;;;122.05;39.15;;;12.80;99.90;;;;;;4991450;28;20123;-77
2021/08/28 03:08:22;;;;;;;121.18;39.80;;;12.80;99.90;;;;;;4989474;28;20038;-77
2021/08/28 03:10:53;;;;;;;113.10;40.80;;;12.80;99.90;;;;;;4974678;28;20383;-77
2021/08/28 03:13:22;;;;;;;126.93;41.47;;;12.70;99.90;;;;;;4988079;28;20049;-77
2021/08/28 03:15:51;;;;;;;136.57;42.80;;;12.70;99.90;;;;;;4989232;28;20439;-77
2021/08/28 03:18:21;;;;;;;141.15;43.75;;;12.70;99.90;;;;;;5005345;28;20038;-76
2021/08/28 03:20:52;;;;;;;133.35;42.53;;;12.70;99.90;;;;;;5002456;28;20126;-76
2021/08/28 03:23:25;;;;;;;144.90;44.10;;;12.70;99.90;;;;;;4997916;28;20164;-77
2021/08/28 03:25:57;;;;;;;152.20;43.50;;;12.70;99.90;;;;;;4981513;28;20058;-77
2021/08/28 03:28:26;;;;;;;164.50;46.22;;;12.70;99.90;;;;;;4973219;28;20049;-77
2021/08/28 03:30:54;;;;;;;142.18;42.63;;;12.60;99.90;;;;;;5005890;28;20067;-77
2021/08/28 03:33:21;;;;;;;110.90;37.97;;;12.60;99.90;;;;;;5012006;28;20062;-77
2021/08/28 03:35:58;;;;;;;138.48;40.55;;;12.70;99.90;;;;;;5004749;28;20034;-76
2021/08/28 03:38:27;;;;;;;136.68;41.30;;;12.70;99.90;;;;;;4971347;28;20108;-76
2021/08/28 03:40:59;;;;;;;118.93;36.88;;;12.80;99.90;;;;;;4987525;28;20048;-77
2021/08/28 03:43:26;;;;;;;91.75;33.33;;;12.80;99.90;;;;;;5004628;28;20062;-76
2021/08/28 03:45:53;;;;;;;91.43;33.67;;;12.80;99.90;;;;;;4993856;28;20065;-76
2021/08/28 03:48:20;;;;;;;99.53;32.80;;;12.80;99.90;;;;;;4988546;28;20069;-77
2021/08/28 03:50:48;;;;;;;105.93;33.78;;;12.80;99.90;;;;;;4970153;28;20137;-77
2021/08/28 03:53:16;;;;;;;82.05;29.73;;;12.80;99.90;;;;;;5003727;28;20046;-77
2021/08/28 03:55:42;;;;;;;89.05;30.73;;;12.80;99.90;;;;;;5012204;28;20123;-77
2021/08/28 03:58:11;;;;;;;74.55;29.10;;;12.80;99.90;;;;;;4994177;28;20049;-77
2021/08/28 04:00:40;;;;;;;82.65;30.65;;;12.80;99.90;;;;;;4970880;28;20226;-77
2021/08/28 04:03:07;;;;;;;72.03;30.45;;;12.70;99.90;;;;;;5001425;28;20049;-76
2021/08/28 04:05:35;;;;;;;62.50;27.10;;;12.80;99.90;;;;;;4985032;28;20049;-76
2021/08/28 04:08:03;;;;;;;64.93;28.23;;;12.70;99.90;;;;;;4987240;28;20538;-76
2021/08/28 04:10:34;;;;;;;58.45;25.52;;;12.70;99.90;;;;;;4987286;28;20050;-77
2021/08/28 04:13:01;;;;;;;63.17;26.00;;;12.60;99.90;;;;;;4987561;28;20064;-77
2021/08/28 04:15:33;;;;;;;63.45;25.88;;;12.60;99.90;;;;;;4986825;28;20061;-77
2021/08/28 04:18:15;;;;;;;56.70;25.15;;;12.60;99.90;;;;;;4973786;28;20453;-76
2021/08/28 04:20:47;;;;;;;56.35;25.65;;;12.60;99.90;;;;;;5003107;28;20441;-77
2021/08/28 04:23:21;;;;;;;68.33;28.83;;;12.60;99.90;;;;;;4987092;28;20488;-77
2021/08/28 04:26:26;;;;;;;65.90;26.23;;;12.60;99.90;;;;;;5005456;28;20075;-76
2021/08/28 04:28:55;;;;;;;71.25;28.13;;;12.70;99.90;;;;;;4984523;28;20089;-76
2021/08/28 04:31:24;;;;;;;73.63;28.75;;;12.70;99.90;;;;;;4954173;28;20163;-77
2021/08/28 04:33:52;;;;;;;62.25;25.42;;;12.70;99.90;;;;;;4995522;28;20057;-77
2021/08/28 04:36:19;;;;;;;64.47;26.83;;;12.70;99.90;;;;;;4985756;28;20069;-77
2021/08/28 04:38:47;;;;;;;54.45;23.80;;;12.70;99.90;;;;;;4985746;28;20168;-77
2021/08/28 04:41:14;;;;;;;58.33;25.58;;;12.70;99.90;;;;;;4986947;28;20046;-76
2021/08/28 04:43:41;;;;;;;60.63;25.90;;;12.70;99.90;;;;;;5020520;28;20049;-76
2021/08/28 04:46:17;;;;;;;57.30;25.35;;;12.70;99.90;;;;;;4986286;28;20530;-75
2021/08/28 04:48:48;;;;;;;52.33;23.20;;;12.60;99.90;;;;;;4988728;28;20072;-78
2021/08/28 04:51:35;;;;;;;47.55;23.15;;;12.60;99.90;;;;;;4990333;28;20100;-78
2021/08/28 04:54:04;;;;;;;50.58;23.05;;;12.60;99.90;;;;;;5004654;28;20050;-78
2021/08/28 04:56:31;;;;;;;53.83;23.73;;;12.50;99.90;;;;;;4997693;28;20069;-76
2021/08/28 04:59:00;;;;;;;48.20;22.90;;;12.50;99.90;;;;;;4987503;28;20103;-76
2021/08/28 05:01:50;;;;;;;52.10;23.65;;;12.50;99.90;;;;;;5002934;28;20114;-76
2021/08/28 05:04:22;;;;;;;53.38;24.27;;;12.50;99.90;;;;;;4988700;28;20096;-77
2021/08/28 05:06:50;;;;;;;56.67;25.45;;;12.40;99.90;;;;;;4990227;28;20160;-76
2021/08/28 05:09:22;;;;;;;53.75;25.88;;;12.50;99.90;;;;;;4991274;28;20064;-75
2021/08/28 05:11:49;;;;;;;57.00;26.38;;;12.40;99.90;;;;;;5005496;28;20491;-78
2021/08/28 05:14:21;;;;;;;62.50;25.85;;;12.50;99.90;;;;;;4992968;28;20053;-75
2021/08/28 05:16:48;;;;;;;65.68;27.17;;;12.50;99.90;;;;;;4994759;28;20107;-77
2021/08/28 05:19:35;;;;;;;62.17;27.20;;;12.50;99.90;;;;;;5010629;28;20050;-76
2021/08/28 05:22:12;;;;;;;60.40;25.58;;;12.50;99.90;;;;;;4990387;28;20148;-76
2021/08/28 05:25:14;;;;;;;55.80;24.92;;;12.50;99.90;;;;;;5010603;28;20121;-78
2021/08/28 05:27:41;;;;;;;48.15;22.23;;;12.50;99.90;;;;;;4993757;28;20073;-77
2021/08/28 05:30:09;;;;;;;51.00;23.02;;;12.50;99.90;;;;;;4989786;28;20034;-77
2021/08/28 05:32:36;;;;;;;44.72;21.75;;;12.60;99.90;;;;;;4990881;28;20050;-77
2021/08/28 05:35:03;;;;;;;50.17;21.92;;;12.60;99.90;;;;;;5003935;28;20069;-77
2021/08/28 05:37:51;;;;;;;40.05;21.15;;;12.60;99.90;;;;;;5006757;28;20073;-77
2021/08/28 05:40:31;;;;;;;44.67;21.80;;;12.60;99.90;;;;;;4989532;28;20157;-76
2021/08/28 05:42:59;;;;;;;49.42;23.13;;;12.70;99.90;;;;;;4980781;28;20046;-78
2021/08/28 05:45:28;;;;;;;51.42;24.67;;;12.70;99.90;;;;;;5004130;28;20070;-78
2021/08/28 05:47:56;;;;;;;48.80;24.13;;;12.80;99.90;;;;;;4992394;28;20134;-78
2021/08/28 05:50:24;;;;;;;49.45;21.80;;;12.90;99.90;;;;;;4990915;28;20447;-78
2021/08/28 05:52:51;;;;;;;42.75;21.45;;;12.90;99.90;;;;;;4991652;28;20113;-79
2021/08/28 05:55:18;;;;;;;34.25;19.23;;;12.80;99.90;;;;;;5012925;28;20059;-78
2021/08/28 05:57:45;;;;;;;36.88;19.65;;;12.80;99.90;;;;;;4987444;28;20051;-78
2021/08/28 06:00:12;;;;;;;37.75;18.98;;;12.80;99.90;;;;;;4997783;28;20065;-78
2021/08/28 06:02:49;;;;;;;36.17;20.23;;;12.90;99.90;;;;;;5008249;28;20048;-78
2021/08/28 06:05:22;;;;;;;38.05;19.40;;;12.90;99.90;;;;;;5002920;28;20054;-78
2021/08/28 06:08:12;;;;;;;37.10;19.88;;;12.90;99.90;;;;;;4989815;28;20144;-76
2021/08/28 06:10:57;;;;;;;44.95;21.73;;;12.90;99.90;;;;;;4988940;28;20042;-77
2021/08/28 06:13:39;;;;;;;41.92;20.63;;;12.90;99.90;;;;;;5015058;28;20046;-77
2021/08/28 06:16:28;;;;;;;36.92;18.95;;;12.90;99.90;;;;;;4994644;28;20089;-77
2021/08/28 06:19:05;;;;;;;16.30;10.10;;;12.90;99.90;;;;;;4991863;28;20100;-77
2021/08/28 06:21:33;;;;;;;16.13;10.38;;;12.90;99.90;;;;;;4992708;28;20088;-77
2021/08/28 06:24:01;;;;;;;15.38;10.25;;;12.90;99.90;;;;;;4975936;28;20041;-78
2021/08/28 06:26:43;;;;;;;13.70;10.27;;;12.80;99.90;;;;;;5002485;28;20057;-76
2021/08/28 06:29:10;;;;;;;12.55;9.38;;;12.90;99.90;;;;;;5027040;28;20063;-77
2021/08/28 06:31:39;;;;;;;14.48;10.38;;;12.90;99.90;;;;;;5002019;28;20053;-77
2021/08/28 06:34:06;;;;;;;9.57;7.32;;;12.90;99.90;;;;;;4996250;28;20049;-77
2021/08/28 06:36:35;;;;;;;9.65;7.53;;;13.00;99.90;;;;;;4989855;28;20050;-77
2021/08/28 06:39:22;;;;;;;14.30;10.07;;;13.00;99.90;;;;;;5007291;28;20140;-77
2021/08/28 06:42:05;;;;;;;13.80;9.43;;;13.00;99.90;;;;;;5005314;28;20046;-77
2021/08/28 06:44:50;;;;;;;;;;;13.00;99.90;;;;;;5007765;28;20633;-77
2021/08/28 06:47:35;;;;;;;8.30;6.18;;;12.90;99.90;;;;;;5007264;28;20419;-78
2021/08/28 06:50:21;;;;;;;7.57;4.70;;;12.80;99.90;;;;;;5004735;28;20049;-77
2021/08/28 06:53:06;;;;;;;8.70;6.05;;;12.90;99.90;;;;;;5005687;28;20056;-77
2021/08/28 06:55:36;;;;;;;7.43;5.07;;;12.90;99.90;;;;;;5043569;28;20041;-77
2021/08/28 06:58:21;;;;;;;;;;;13.00;99.90;;;;;;5007805;28;20510;-77
2021/08/28 07:01:06;;;;;;;3.17;2.88;;;12.90;99.90;;;;;;5020400;28;19921;-77
2021/08/28 07:03:52;;;;;;;5.30;3.15;;;12.90;99.90;;;;;;5013620;28;20053;-77
2021/08/28 07:06:37;;;;;;;2.28;2.05;;;12.90;99.90;;;;;;4989339;28;20045;-77
2021/08/28 07:09:04;;;;;;;2.45;1.60;;;12.80;99.90;;;;;;5007797;28;20065;-77
2021/08/28 07:11:31;;;;;;;3.55;2.25;;;12.80;99.90;;;;;;4991423;28;20061;-77
2021/08/28 07:13:58;;;;;;;3.33;3.03;;;12.90;99.90;;;;;;5006719;28;20110;-76
2021/08/28 07:16:25;;;;;;;2.92;2.63;;;13.00;99.90;;;;;;4989548;28;20042;-77
2021/08/28 07:18:52;;;;;;;1.88;1.75;;;13.10;99.90;;;;;;5009587;28;20107;-76
2021/08/28 07:21:20;;;;;;;2.13;1.95;;;13.00;99.90;;;;;;4992575;28;20045;-76
2021/08/28 07:23:48;;;;;;;2.92;2.33;;;13.00;99.90;;;;;;4991738;28;20565;-77
2021/08/28 07:26:33;;;;;;;3.58;2.85;;;13.00;99.90;;;;;;5033913;28;20477;-77
2021/08/28 07:29:35;;;;;;;3.85;3.05;;;12.90;99.90;;;;;;4993249;28;20576;-77
2021/08/28 07:32:03;;;;;;;3.42;2.80;;;12.90;99.90;;;;;;4993260;28;20327;-77
2021/08/28 07:34:35;;;;;;;3.00;2.70;;;12.80;99.90;;;;;;5012766;28;20049;-77
2021/08/28 07:37:05;;;;;;;3.83;3.40;;;12.80;99.90;;;;;;5009342;28;20495;-77
2021/08/28 07:39:33;;;;;;;4.65;3.75;;;12.70;99.90;;;;;;5012069;28;20081;-77
2021/08/28 07:42:01;;;;;;;5.93;4.38;;;12.70;99.90;;;;;;4997140;28;20050;-77
2021/08/28 07:44:28;;;;;;;7.45;4.63;;;12.90;99.90;;;;;;5011452;28;20057;-78
2021/08/28 07:46:56;;;;;;;6.70;5.18;;;12.80;99.90;;;;;;5011955;28;20085;-77
2021/08/28 07:49:29;;;;;;;5.40;3.40;;;13.00;99.90;;;;;;5005252;28;20092;-76
2021/08/28 07:52:03;;;;;;;6.00;5.05;;;13.00;99.90;;;;;;4993826;28;20422;-76
2021/08/28 07:54:35;;;;;;;6.63;5.93;;;13.00;99.90;;;;;;5022889;28;20029;-77
2021/08/28 07:57:02;;;;;;;8.27;4.93;;;13.00;99.90;;;;;;5017640;28;20045;-77
2021/08/28 07:59:29;;;;;;;6.35;5.07;;;13.10;99.90;;;;;;5007431;28;20046;-77
2021/08/28 08:01:57;;;;;;;6.05;4.72;;;13.10;99.90;;;;;;4992486;28;20100;-77
2021/08/28 08:04:26;;;;;;;5.70;4.72;;;13.20;99.90;;;;;;5009744;28;20058;-77
2021/08/28 08:07:22;;;;;;;;;;;13.30;99.90;;;;;;5009547;28;20050;-77
2021/08/28 08:10:08;;;;;;;3.85;3.45;;;13.40;99.90;;;;;;5009153;28;20452;-78
2021/08/28 08:12:53;;;;;;;3.50;2.88;;;13.50;99.90;;;;;;5009520;28;20053;-77
2021/08/28 08:15:39;;;;;;;3.25;2.95;;;13.40;99.90;;;;;;4994436;28;20137;-77
2021/08/28 08:18:30;;;;;;;3.53;2.97;;;13.50;99.90;;;;;;5016941;28;20055;-77
2021/08/28 08:21:16;;;;;;;3.28;2.53;;;13.50;99.90;;;;;;5010881;28;20053;-77
2021/08/28 08:23:48;;;;;;;2.92;2.63;;;13.50;99.90;;;;;;5011777;28;20046;-76
2021/08/28 08:26:33;;;;;;;2.10;1.90;;;13.70;99.90;;;;;;5026284;28;20052;-78
2021/08/28 08:29:19;;;;;;;5.00;4.50;;;13.90;99.90;;;;;;5011386;28;20368;-77
2021/08/28 08:32:12;;;;;;;1.80;1.55;;;14.10;99.90;;;;;;5009878;28;20898;-77
2021/08/28 08:34:44;;;;;;;2.13;1.75;;;14.30;99.90;;;;;;4998835;28;20372;-77
2021/08/28 08:37:14;;;;;;;1.73;1.63;;;14.30;99.90;;;;;;4991039;28;20076;-77
2021/08/28 08:39:41;;;;;;;1.50;1.35;;;14.40;99.90;;;;;;4977048;28;20056;-78
2021/08/28 08:42:11;;;;;;;1.60;1.50;;;14.60;99.90;;;;;;4977181;28;20102;-77
2021/08/28 08:44:40;;;;;;;2.90;2.25;;;14.70;99.90;;;;;;5007765;28;20506;-76
2021/08/28 08:47:10;;;;;;;4.38;3.00;;;14.70;99.90;;;;;;5008462;28;20050;-76
2021/08/28 08:49:39;;;;;;;2.08;1.63;;;14.80;99.90;;;;;;4978050;28;20041;-77
2021/08/28 08:52:07;;;;;;;2.33;1.63;;;14.80;99.90;;;;;;5023327;28;20677;-77
2021/08/28 08:54:49;;;;;;;1.75;1.23;;;15.10;99.90;;;;;;5028550;28;20084;-77
2021/08/28 08:57:17;;;;;;;3.25;2.67;;;15.30;99.90;;;;;;4981404;28;20344;-77
2021/08/28 08:59:45;;;;;;;2.40;2.20;;;15.50;99.90;;;;;;4991295;28;20085;-77
2021/08/28 09:02:12;;;;;;;4.70;2.88;;;15.40;99.90;;;;;;5021839;28;20461;-77
2021/08/28 09:05:17;;;;;;;3.10;2.80;;;15.50;99.90;;;;;;5009639;28;20042;-76
2021/08/28 09:07:44;;;;;;;2.67;2.15;;;15.60;99.90;;;;;;4990231;28;20054;-77
2021/08/28 09:10:12;;;;;;;3.65;2.75;;;15.70;99.90;;;;;;4990360;28;20521;-77
2021/08/28 09:12:41;;;;;;;3.05;2.85;;;15.60;99.90;;;;;;4990888;28;20688;-77
2021/08/28 09:15:12;;;;;;;2.92;2.67;;;15.80;99.90;;;;;;4991914;28;20482;-77
2021/08/28 09:17:42;;;;;;;2.83;2.13;;;15.80;99.90;;;;;;5025774;28;20045;-77
2021/08/28 09:20:23;;;;;;;1.98;1.88;;;15.60;99.90;;;;;;5017449;28;20049;-77
2021/08/28 09:23:01;;;;;;;3.08;1.90;;;15.60;99.90;;;;;;5021625;28;20349;-77
2021/08/28 09:25:28;;;;;;;4.40;2.10;;;15.60;99.90;;;;;;5008941;28;20057;-78
2021/08/28 09:27:55;;;;;;;1.85;1.67;;;15.60;99.90;;;;;;4997920;28;20108;-78
2021/08/28 09:30:25;;;;;;;2.55;1.60;;;15.60;99.90;;;;;;4975298;28;20133;-78
2021/08/28 09:32:54;;;;;;;2.35;2.25;;;15.60;99.90;;;;;;4990995;28;20258;-78
2021/08/28 09:35:27;;;;;;;2.30;2.17;;;15.30;99.90;;;;;;4991415;28;20177;-78
2021/08/28 09:37:58;;;;;;;2.97;2.42;;;15.20;99.90;;;;;;5008899;28;20116;-78
2021/08/28 09:40:33;;;;;;;2.20;2.00;;;15.20;99.90;;;;;;5008796;28;20048;-77
2021/08/28 09:43:06;;;;;;;2.08;1.88;;;15.20;99.90;;;;;;4986261;28;20526;-77
2021/08/28 09:45:37;;;;;;;1.92;1.83;;;15.20;99.90;;;;;;4993300;28;20112;-78
2021/08/28 09:48:07;;;;;;;2.63;1.60;;;15.20;99.90;;;;;;5009441;28;20046;-78
2021/08/28 09:50:37;;;;;;;3.45;2.08;;;15.20;99.90;;;;;;5009711;28;20257;-78
2021/08/28 09:53:13;;;;;;;1.90;1.70;;;15.20;99.90;;;;;;4996144;28;20046;-78
2021/08/28 09:55:42;;;;;;;2.25;2.15;;;15.30;99.90;;;;;;5023052;28;20041;-78
2021/08/28 09:58:10;;;;;;;2.78;2.08;;;15.30;99.90;;;;;;5010776;28;20057;-78
2021/08/28 10:00:43;;;;;;;4.22;2.50;;;15.40;99.90;;;;;;5015086;28;20061;-78
2021/08/28 10:03:11;;;;;;;2.05;1.88;;;15.60;99.90;;;;;;4980894;28;20052;-79
2021/08/28 10:05:42;;;;;;;2.42;2.13;;;15.80;99.90;;;;;;5026136;28;20141;-78
2021/08/28 10:08:09;;;;;;;3.55;3.13;;;16.00;99.90;;;;;;5014864;28;20048;-79
2021/08/28 10:10:38;;;;;;;2.88;2.67;;;16.10;99.90;;;;;;4999081;28;20162;-79
2021/08/28 10:13:26;;;;;;;2.85;2.65;;;16.20;99.90;;;;;;5000916;28;20046;-79
2021/08/28 10:15:54;;;;;;;3.15;2.90;;;16.10;99.90;;;;;;4997818;28;20450;-79
2021/08/28 10:18:22;;;;;;;3.08;2.85;;;16.00;99.90;;;;;;5014581;28;20490;-78
2021/08/28 10:20:52;;;;;;;3.00;2.67;;;16.00;99.90;;;;;;5021381;28;20051;-79
2021/08/28 10:23:25;;;;;;;2.75;2.55;;;15.90;99.90;;;;;;5008337;28;20057;-79
2021/08/28 10:25:52;;;;;;;2.72;2.28;;;15.80;99.90;;;;;;5019534;28;20050;-78
2021/08/28 10:28:20;;;;;;;2.95;2.65;;;15.90;99.90;;;;;;5028635;28;20053;-79
2021/08/28 10:30:47;;;;;;;3.75;3.45;;;16.00;99.90;;;;;;5015372;28;20092;-78
2021/08/28 10:33:14;;;;;;;4.72;3.45;;;16.00;99.90;;;;;;5014339;28;20050;-79
2021/08/28 10:35:41;;;;;;;3.42;3.13;;;16.10;99.90;;;;;;5030244;28;20069;-80
2021/08/28 10:38:08;;;;;;;4.43;2.55;;;16.20;99.90;;;;;;4997346;28;20042;-79
2021/08/28 10:40:36;;;;;;;2.88;2.58;;;16.00;99.90;;;;;;4999375;28;20457;-80
2021/08/28 10:43:06;;;;;;;2.20;2.00;;;16.20;99.90;;;;;;4998917;28;20053;-80
2021/08/28 10:45:36;;;;;;;2.55;2.35;;;16.40;99.90;;;;;;5015495;28;20054;-81
2021/08/28 10:48:23;;;;;;;3.08;2.45;;;16.60;99.90;;;;;;5045492;28;20226;-81
2021/08/28 10:50:54;;;;;;;2.85;2.30;;;16.70;99.90;;;;;;5001162;28;20054;-81
2021/08/28 10:53:23;;;;;;;3.13;2.42;;;16.90;99.90;;;;;;5017162;28;20060;-80
2021/08/28 10:55:50;;;;;;;2.47;2.33;;;17.10;99.90;;;;;;5037139;28;20116;-81
2021/08/28 10:58:22;;;;;;;2.33;2.22;;;17.20;99.90;;;;;;5032585;28;20082;-80
2021/08/28 11:00:55;;;;;;;2.70;2.50;;;17.50;99.90;;;;;;4999438;28;20104;-81
2021/08/28 11:03:27;;;;;;;2.45;2.25;;;17.80;99.90;;;;;;5015928;28;20054;-80
2021/08/28 11:06:13;;;;;;;3.47;2.50;;;17.80;99.90;;;;;;5017285;28;20050;-80
2021/08/28 11:08:50;;;;;;;3.47;3.20;;;17.60;99.90;;;;;;5032630;28;20050;-80
2021/08/28 11:11:19;;;;;;;2.90;2.70;;;17.40;99.90;;;;;;5015593;28;20054;-80
2021/08/28 11:14:00;;;;;;;3.33;2.70;;;17.60;99.90;;;;;;5025509;28;20084;-81
2021/08/28 11:16:51;;;;;;;3.10;2.90;;;17.80;99.90;;;;;;5033040;28;20627;-79
2021/08/28 11:19:24;;;;;;;3.22;3.03;;;17.90;99.90;;;;;;5010502;28;20073;-82
2021/08/28 11:21:52;;;;;;;3.08;2.90;;;17.80;99.90;;;;;;5016425;28;20056;-80
2021/08/28 11:24:29;;;;;;;4.45;3.40;;;17.90;99.90;;;;;;4988333;28;20076;-81
2021/08/28 11:26:59;;;;;;;3.58;3.30;;;18.00;99.90;;;;;;5024390;28;20102;-80
2021/08/28 11:29:33;;;;;;;3.40;3.20;;;18.00;99.90;;;;;;5019939;28;20054;-80
2021/08/28 11:32:23;;;;;;;3.15;2.95;;;18.10;99.90;;;;;;5030848;28;20047;-80
2021/08/28 11:34:55;;;;;;;2.72;2.60;;;18.00;99.90;;;;;;5013730;28;20068;-79
2021/08/28 11:37:31;;;;;;;2.90;2.70;;;17.50;99.90;;;;;;5034735;28;20040;-79
2021/08/28 11:40:06;;;;;;;3.35;3.00;;;17.40;99.90;;;;;;5005766;28;20666;-79
2021/08/28 11:42:33;;;;;;;2.72;2.53;;;17.40;99.90;;;;;;4983083;28;20054;-79
2021/08/28 11:45:00;;;;;;;2.60;2.40;;;17.50;99.90;;;;;;5032379;28;20037;-79
2021/08/28 11:47:28;;;;;;;2.88;2.33;;;17.50;99.90;;;;;;5031011;28;20045;-79
2021/08/28 11:49:57;;;;;;;4.03;2.70;;;17.40;99.90;;;;;;4981746;28;20045;-79
2021/08/28 11:52:26;;;;;;;2.60;2.40;;;17.50;99.90;;;;;;5012823;28;20119;-79
2021/08/28 11:54:53;;;;;;;2.90;2.70;;;17.50;99.90;;;;;;5011421;28;20704;-79
2021/08/28 11:57:20;;;;;;;2.05;1.95;;;17.60;99.90;;;;;;5009997;28;20044;-79
2021/08/28 11:59:47;;;;;;;2.30;2.15;;;17.60;99.90;;;;;;5017348;28;20060;-79
2021/08/28 12:02:18;;;;;;;3.22;2.47;;;17.50;99.90;;;;;;5010455;28;20188;-80
2021/08/28 12:04:45;;;;;;;2.47;2.38;;;17.50;99.90;;;;;;5029868;28;20064;-80
2021/08/28 12:07:13;;;;;;;3.13;2.50;;;17.40;99.90;;;;;;5012894;28;20041;-80
2021/08/28 12:09:40;;;;;;;4.53;2.40;;;17.40;99.90;;;;;;5035607;28;20050;-80
2021/08/28 12:12:07;;;;;;;2.60;2.40;;;17.40;99.90;;;;;;5031585;28;20033;-80
2021/08/28 12:14:35;;;;;;;3.00;2.80;;;17.50;99.90;;;;;;5031440;28;20080;-80
2021/08/28 12:17:03;;;;;;;2.70;2.60;;;17.70;99.90;;;;;;5015220;28;20093;-80
2021/08/28 12:19:33;;;;;;;2.85;2.70;;;17.70;99.90;;;;;;5014699;28;20037;-80
2021/08/28 12:22:08;;;;;;;3.03;2.83;;;17.80;99.90;;;;;;5023285;28;20058;-80
2021/08/28 12:24:38;;;;;;;3.25;2.95;;;17.70;99.90;;;;;;4997078;28;20076;-80
2021/08/28 12:27:12;;;;;;;3.20;3.00;;;17.70;99.90;;;;;;4999988;28;20433;-80
2021/08/28 12:29:45;;;;;;;3.20;3.00;;;17.60;99.90;;;;;;5010370;28;20061;-80
2021/08/28 12:32:13;;;;;;;2.63;2.42;;;17.60;99.90;;;;;;4993613;28;20088;-79
2021/08/28 12:34:44;;;;;;;2.60;2.50;;;17.70;99.90;;;;;;4995931;28;20107;-79
2021/08/28 12:37:14;;;;;;;3.83;3.40;;;17.70;99.90;;;;;;5009752;28;20042;-80
2021/08/28 12:39:49;;;;;;;3.60;3.40;;;17.70;99.90;;;;;;4978239;28;20113;-79
2021/08/28 12:42:18;;;;;;;3.72;3.53;;;17.90;99.90;;;;;;5009818;28;20806;-79
2021/08/28 12:44:46;;;;;;;3.60;3.40;;;17.80;99.90;;;;;;5008008;28;20048;-80
2021/08/28 12:47:17;;;;;;;3.47;3.28;;;17.90;99.90;;;;;;4993019;28;20060;-79
2021/08/28 12:49:44;;;;;;;3.80;3.50;;;18.00;99.90;;;;;;5008308;28;20117;-80
2021/08/28 12:52:13;;;;;;;3.92;3.72;;;18.10;99.90;;;;;;4992943;28;20058;-80
2021/08/28 12:54:46;;;;;;;4.38;4.07;;;18.20;99.90;;;;;;5013263;28;20053;-80
2021/08/28 12:57:29;;;;;;;4.20;4.00;;;18.30;99.90;;;;;;5033934;28;20114;-80
2021/08/28 13:00:05;;;;;;;5.15;4.75;;;18.40;99.90;;;;;;4996755;28;20482;-80
2021/08/28 13:02:34;;;;;;;4.88;4.57;;;18.30;99.90;;;;;;5007292;28;20142;-81
2021/08/28 13:05:04;;;;;;;5.50;5.00;;;18.10;99.90;;;;;;5012774;28;20038;-80